aviador You're here:

SADF Decoded Metar

SAN FERNANDO in ARGENTINA
Report Time2018-02-22 08:00:00
UTC Time2018-02-22 08:43:27
Flight Rules vfr VFR
Wind180° at 03 kt
W.Decomp.*RWY 23: 2.2 kt HW 2 kt LCW
W.Rank180° ranks 3
Current wind is below 180° avg. (6.1)
Visibility9999 m
Phenomena:N/A
Clouds:N/A
Expected CloudBase > 1,600 ft AGL from Temp-Dew spread
CeilingNone
Temp17°C (ISA +2)
Dew Point13°C (77% RH)
AAT16.8°C
QNH1015 hPa
Density Alt384 ft
Elevation13 ft
Report Wrong Elevation
Raw Report
METAR SADF 220800Z 18003KT CAVOK 17/13 Q1015=

Extra information for SADF:More info

Metar Taf Metar & Taf Last 4 Metars F.Rules Stats Wind Profile Meteogram Temp Stats Airport Information Weather charts Add Link Nearby VenuesMetar ALERT Operation Metar Decoded Social comments